BARN26 YAMB-YWLM
Flight info
| Callsign | BARN26 |
|---|---|
| Flight time | 0h 43m |
| Altitude | 39000 |
| Route | AMB DCT COWIE DCT 2741S15320E 2748S15326E DCT LOTMA DCT SEMAJ DCT 2938S15349E 3020S15339E/N0470F380 3045S15332E DCT 3241S15234E 3306S15210E DCT WLM |
| Aircraft | F35/M-SADE2E3FGHIJ3J4J5M1RWXY/LB1D1 |
Departure
| Time | 2026-04-28 09:14 |
|---|---|
| Airport | RAAF Base Amberley (YAMB) |
Arrival
| Time | 2026-04-28 09:57 |
|---|---|
| Airport | Newcastle Airport (YWLM) |
| Time | Latitude | Longitude | Altitude | Speed | Heading |
|---|---|---|---|---|---|
| 2026-04-28 09:13 | -27.69567 | 152.99235 | 35201 ft | 674 kts | 97° |
| 2026-04-28 09:14 | -27.70208 | 153.04581 | 35884 ft | 717 kts | 98° |
| 2026-04-28 09:14 | -27.70894 | 153.10338 | 36618 ft | 767 kts | 98° |
| 2026-04-28 09:14 | -27.71634 | 153.16529 | 37405 ft | 825 kts | 98° |
| 2026-04-28 09:14 | -27.72792 | 153.23100 | 38256 ft | 883 kts | 108° |
| 2026-04-28 09:15 | -27.74950 | 153.29634 | 38891 ft | 870 kts | 115° |
| 2026-04-28 09:15 | -27.77811 | 153.35423 | 39128 ft | 820 kts | 127° |
| 2026-04-28 09:15 | -27.81470 | 153.40125 | 39244 ft | 777 kts | 140° |
| 2026-04-28 09:15 | -27.85701 | 153.43713 | 39278 ft | 755 kts | 148° |
| 2026-04-28 09:16 | -27.90190 | 153.46864 | 39269 ft | 762 kts | 150° |
| 2026-04-28 09:16 | -27.98637 | 153.54163 | 39300 ft | 773 kts | 132° |
| 2026-04-28 09:17 | -28.05176 | 153.63854 | 39289 ft | 775 kts | 126° |
| 2026-04-28 09:17 | -28.12125 | 153.73144 | 39283 ft | 774 kts | 136° |
| 2026-04-28 09:17 | -28.16297 | 153.76951 | 39322 ft | 771 kts | 150° |
| 2026-04-28 09:18 | -28.21107 | 153.79586 | 39356 ft | 768 kts | 163° |
| 2026-04-28 09:18 | -28.31565 | 153.81765 | 39333 ft | 764 kts | 175° |
| 2026-04-28 09:19 | -28.42122 | 153.82993 | 39299 ft | 763 kts | 175° |
| 2026-04-28 09:19 | -28.52528 | 153.85285 | 39297 ft | 764 kts | 165° |
| 2026-04-28 09:20 | -28.62854 | 153.88152 | 39291 ft | 763 kts | 167° |
| 2026-04-28 09:20 | -28.73315 | 153.89422 | 39345 ft | 759 kts | 188° |
| 2026-04-28 09:21 | -28.83648 | 153.87083 | 39319 ft | 754 kts | 194° |
| 2026-04-28 09:21 | -28.93960 | 153.84837 | 39308 ft | 757 kts | 187° |
| 2026-04-28 09:22 | -29.04359 | 153.83100 | 39301 ft | 754 kts | 188° |
| 2026-04-28 09:22 | -29.14663 | 153.81326 | 39288 ft | 752 kts | 189° |
| 2026-04-28 09:23 | -29.25014 | 153.79532 | 39289 ft | 753 kts | 189° |
| 2026-04-28 09:23 | -29.35359 | 153.77732 | 39292 ft | 752 kts | 189° |
| 2026-04-28 09:24 | -29.45684 | 153.75928 | 39292 ft | 750 kts | 189° |
| 2026-04-28 09:24 | -29.55994 | 153.74121 | 39290 ft | 749 kts | 189° |
| 2026-04-28 09:25 | -29.66300 | 153.72309 | 39298 ft | 749 kts | 189° |
| 2026-04-28 09:25 | -29.76591 | 153.70497 | 39297 ft | 748 kts | 189° |
| 2026-04-28 09:26 | -29.86890 | 153.68679 | 39301 ft | 748 kts | 189° |
| 2026-04-28 09:26 | -29.97174 | 153.66860 | 39304 ft | 748 kts | 189° |
| 2026-04-28 09:27 | -30.11855 | 153.61321 | 39332 ft | 747 kts | 205° |
| 2026-04-28 09:27 | -30.21494 | 153.56901 | 39329 ft | 746 kts | 203° |
| 2026-04-28 09:28 | -30.31114 | 153.52441 | 39323 ft | 744 kts | 202° |
| 2026-04-28 09:28 | -30.40724 | 153.47983 | 39321 ft | 743 kts | 202° |
| 2026-04-28 09:29 | -30.50322 | 153.43525 | 39320 ft | 743 kts | 201° |
| 2026-04-28 09:29 | -30.59902 | 153.39068 | 39320 ft | 741 kts | 201° |
| 2026-04-28 09:30 | -30.69477 | 153.34608 | 39320 ft | 740 kts | 201° |
| 2026-04-28 09:30 | -30.79032 | 153.30148 | 39325 ft | 740 kts | 201° |
| 2026-04-28 09:31 | -30.88568 | 153.25688 | 39322 ft | 739 kts | 201° |
| 2026-04-28 09:31 | -30.98094 | 153.21222 | 39326 ft | 736 kts | 201° |
| 2026-04-28 09:32 | -31.07604 | 153.16754 | 39325 ft | 736 kts | 201° |
| 2026-04-28 09:32 | -31.17085 | 153.12291 | 39331 ft | 736 kts | 201° |
| 2026-04-28 09:33 | -31.21820 | 153.10057 | 39329 ft | 721 kts | 201° |
| 2026-04-28 09:33 | -31.26207 | 153.07983 | 39313 ft | 649 kts | 201° |
| 2026-04-28 09:33 | -31.34562 | 153.04036 | 39307 ft | 659 kts | 201° |
| 2026-04-28 09:34 | -31.43096 | 152.99994 | 39320 ft | 662 kts | 201° |
| 2026-04-28 09:34 | -31.51642 | 152.95938 | 39327 ft | 663 kts | 201° |
| 2026-04-28 09:35 | -31.60182 | 152.91876 | 39334 ft | 662 kts | 201° |
| 2026-04-28 09:35 | -31.68717 | 152.87808 | 39338 ft | 661 kts | 200° |
| 2026-04-28 09:36 | -31.77220 | 152.83749 | 39336 ft | 661 kts | 200° |
| 2026-04-28 09:36 | -31.85730 | 152.79677 | 39339 ft | 660 kts | 200° |
| 2026-04-28 09:37 | -31.94063 | 152.75677 | 38606 ft | 578 kts | 200° |
| 2026-04-28 09:37 | -31.97573 | 152.73994 | 37514 ft | 511 kts | 200° |
| 2026-04-28 09:37 | -32.00744 | 152.72473 | 33952 ft | 508 kts | 200° |
| 2026-04-28 09:38 | -32.04031 | 152.70906 | 30221 ft | 511 kts | 202° |
| 2026-04-28 09:38 | -32.07331 | 152.69335 | 26494 ft | 511 kts | 201° |
| 2026-04-28 09:38 | -32.10613 | 152.67772 | 23266 ft | 505 kts | 201° |
| 2026-04-28 09:38 | -32.13555 | 152.66361 | 20097 ft | 377 kts | 201° |
| 2026-04-28 09:39 | -32.15722 | 152.65276 | 17680 ft | 336 kts | 202° |
| 2026-04-28 09:39 | -32.17817 | 152.64207 | 14365 ft | 299 kts | 202° |
| 2026-04-28 09:39 | -32.19589 | 152.63268 | 10605 ft | 266 kts | 208° |
| 2026-04-28 09:39 | -32.20650 | 152.61284 | 9229 ft | 306 kts | 260° |
| 2026-04-28 09:40 | -32.20934 | 152.58889 | 8830 ft | 306 kts | 262° |
| 2026-04-28 09:40 | -32.21209 | 152.56480 | 8758 ft | 295 kts | 262° |
| 2026-04-28 09:40 | -32.21479 | 152.54097 | 8697 ft | 293 kts | 262° |
| 2026-04-28 09:40 | -32.21748 | 152.51725 | 8635 ft | 291 kts | 262° |
| 2026-04-28 09:41 | -32.22017 | 152.49362 | 8574 ft | 290 kts | 262° |
| 2026-04-28 09:41 | -32.22284 | 152.46999 | 8521 ft | 289 kts | 262° |
| 2026-04-28 09:41 | -32.22555 | 152.44644 | 8511 ft | 290 kts | 262° |
| 2026-04-28 09:41 | -32.22832 | 152.42287 | 8524 ft | 289 kts | 262° |
| 2026-04-28 09:42 | -32.23109 | 152.39932 | 8542 ft | 289 kts | 262° |
| 2026-04-28 09:42 | -32.23386 | 152.37579 | 8561 ft | 290 kts | 262° |
| 2026-04-28 09:42 | -32.23662 | 152.35224 | 8582 ft | 289 kts | 262° |
| 2026-04-28 09:42 | -32.23938 | 152.32869 | 8608 ft | 290 kts | 262° |
| 2026-04-28 09:43 | -32.24212 | 152.30540 | 8640 ft | 290 kts | 262° |
| 2026-04-28 09:43 | -32.24492 | 152.28150 | 8675 ft | 290 kts | 262° |
| 2026-04-28 09:43 | -32.24766 | 152.25819 | 8715 ft | 290 kts | 261° |
| 2026-04-28 09:43 | -32.25044 | 152.23455 | 8760 ft | 291 kts | 261° |
| 2026-04-28 09:44 | -32.25321 | 152.21091 | 8806 ft | 291 kts | 261° |
| 2026-04-28 09:44 | -32.25599 | 152.18720 | 8859 ft | 290 kts | 261° |
| 2026-04-28 09:44 | -32.25879 | 152.16348 | 8918 ft | 292 kts | 261° |
| 2026-04-28 09:44 | -32.26164 | 152.13978 | 8985 ft | 292 kts | 261° |
| 2026-04-28 09:45 | -32.26456 | 152.11603 | 9054 ft | 291 kts | 261° |
| 2026-04-28 09:45 | -32.26807 | 152.09241 | 9111 ft | 293 kts | 256° |
| 2026-04-28 09:45 | -32.27415 | 152.06956 | 9066 ft | 290 kts | 248° |
| 2026-04-28 09:45 | -32.28223 | 152.04764 | 9012 ft | 290 kts | 243° |
| 2026-04-28 09:46 | -32.29118 | 152.02627 | 8955 ft | 290 kts | 242° |
| 2026-04-28 09:46 | -32.30055 | 152.00522 | 8842 ft | 288 kts | 240° |
| 2026-04-28 09:46 | -32.31007 | 151.98433 | 8756 ft | 288 kts | 240° |
| 2026-04-28 09:46 | -32.31651 | 151.97024 | 8728 ft | 289 kts | 240° |
| 2026-04-28 09:47 | -32.32608 | 151.94936 | 8639 ft | 291 kts | 240° |
| 2026-04-28 09:47 | -32.33876 | 151.92183 | 7745 ft | 285 kts | 240° |
| 2026-04-28 09:47 | -32.34519 | 151.90796 | 7310 ft | 283 kts | 241° |
| 2026-04-28 09:47 | -32.35449 | 151.88799 | 6686 ft | 278 kts | 238° |
| 2026-04-28 09:48 | -32.36759 | 151.87139 | 6422 ft | 280 kts | 221° |
| 2026-04-28 09:48 | -32.38209 | 151.85629 | 6101 ft | 275 kts | 221° |
| 2026-04-28 09:48 | -32.39645 | 151.84121 | 6085 ft | 277 kts | 221° |
| 2026-04-28 09:48 | -32.41088 | 151.82605 | 6102 ft | 277 kts | 221° |
| 2026-04-28 09:49 | -32.42531 | 151.81089 | 6132 ft | 278 kts | 221° |
| 2026-04-28 09:49 | -32.43975 | 151.79568 | 6114 ft | 278 kts | 221° |
| 2026-04-28 09:49 | -32.45413 | 151.78048 | 6048 ft | 278 kts | 221° |
| 2026-04-28 09:49 | -32.46853 | 151.76524 | 5982 ft | 277 kts | 221° |
| 2026-04-28 09:50 | -32.48292 | 151.75010 | 6005 ft | 277 kts | 221° |
| 2026-04-28 09:50 | -32.49735 | 151.73494 | 6027 ft | 277 kts | 221° |
| 2026-04-28 09:50 | -32.51182 | 151.71980 | 6055 ft | 277 kts | 221° |
| 2026-04-28 09:50 | -32.52630 | 151.70472 | 6096 ft | 278 kts | 221° |
| 2026-04-28 09:51 | -32.54086 | 151.68965 | 6141 ft | 279 kts | 220° |
| 2026-04-28 09:51 | -32.55542 | 151.67458 | 6202 ft | 279 kts | 221° |
| 2026-04-28 09:51 | -32.56999 | 151.65931 | 6200 ft | 280 kts | 221° |
| 2026-04-28 09:51 | -32.58442 | 151.64401 | 6060 ft | 278 kts | 221° |
| 2026-04-28 09:52 | -32.59872 | 151.62863 | 6022 ft | 278 kts | 221° |
| 2026-04-28 09:52 | -32.61305 | 151.61329 | 5992 ft | 278 kts | 221° |
| 2026-04-28 09:52 | -32.63022 | 151.60532 | 5602 ft | 271 kts | 167° |
| 2026-04-28 09:52 | -32.64198 | 151.62037 | 4686 ft | 267 kts | 115° |
| 2026-04-28 09:53 | -32.65330 | 151.63751 | 4329 ft | 265 kts | 130° |
| 2026-04-28 09:53 | -32.66567 | 151.65436 | 3881 ft | 271 kts | 131° |
| 2026-04-28 09:53 | -32.67767 | 151.67037 | 3470 ft | 246 kts | 129° |
| 2026-04-28 09:53 | -32.68828 | 151.68496 | 3147 ft | 220 kts | 129° |
| 2026-04-28 09:54 | -32.69727 | 151.69737 | 2796 ft | 182 kts | 128° |
| 2026-04-28 09:54 | -32.70529 | 151.70839 | 2528 ft | 170 kts | 128° |
| 2026-04-28 09:54 | -32.71349 | 151.71971 | 2302 ft | 191 kts | 128° |
| 2026-04-28 09:54 | -32.72225 | 151.73187 | 2029 ft | 190 kts | 128° |
| 2026-04-28 09:55 | -32.73071 | 151.74356 | 1749 ft | 182 kts | 128° |
| 2026-04-28 09:55 | -32.73873 | 151.75471 | 1498 ft | 173 kts | 128° |
| 2026-04-28 09:55 | -32.74652 | 151.76565 | 1275 ft | 175 kts | 128° |
| 2026-04-28 09:55 | -32.75443 | 151.77684 | 1034 ft | 180 kts | 128° |
| 2026-04-28 09:56 | -32.76248 | 151.78806 | 793 ft | 172 kts | 128° |
| 2026-04-28 09:56 | -32.77037 | 151.79907 | 568 ft | 188 kts | 129° |
| 2026-04-28 09:56 | -32.77851 | 151.81046 | 321 ft | 178 kts | 130° |
| 2026-04-28 09:56 | -32.78616 | 151.82118 | 91 ft | 157 kts | 130° |
| 2026-04-28 09:57 | -32.79201 | 151.82939 | 27 ft | 86 kts | 131° |
| 2026-04-28 09:57 | -32.79504 | 151.83363 | 25 ft | 61 kts | 130° |
| 2026-04-28 09:57 | -32.79753 | 151.83711 | 26 ft | 49 kts | 130° |
| 2026-04-28 09:57 | -32.79830 | 151.83904 | 25 ft | 21 kts | 60° |
| 2026-04-28 09:58 | -32.79801 | 151.83954 | 25 ft | 0 kts | 54° |
| 2026-04-28 09:59 | -32.79790 | 151.83972 | 27 ft | 12 kts | 54° |
| 2026-04-28 09:59 | -32.79718 | 151.83950 | 25 ft | 15 kts | 310° |
| 2026-04-28 09:59 | -32.79621 | 151.83816 | 28 ft | 33 kts | 310° |
| 2026-04-28 10:00 | -32.79466 | 151.83600 | 26 ft | 34 kts | 310° |
| 2026-04-28 10:00 | -32.79364 | 151.83468 | 25 ft | 4 kts | 353° |
| 2026-04-28 10:00 | -32.79304 | 151.83520 | 27 ft | 19 kts | 40° |
| 2026-04-28 10:00 | -32.79197 | 151.83627 | 25 ft | 20 kts | 40° |
| 2026-04-28 10:01 | -32.79093 | 151.83730 | 25 ft | 11 kts | 33° |
| 2026-04-28 10:01 | -32.79027 | 151.83701 | 25 ft | 9 kts | 9° |
| 2026-04-28 10:01 | -32.78953 | 151.83754 | 27 ft | 14 kts | 45° |
| 2026-04-28 10:01 | -32.78948 | 151.83800 | 27 ft | 6 kts | 144° |
| 2026-04-28 10:02 | -32.79001 | 151.83844 | 25 ft | 10 kts | 144° |
| 2026-04-28 10:02 | -32.79029 | 151.83837 | 25 ft | 3 kts | 234° |
| 2026-04-28 10:02 | -32.79032 | 151.83832 | 25 ft | 0 kts | 234° |